WetterOnline ( https://www.wetteronline.de )

Wetter aktuell Geisenheim

Aktuelles Wetter: Geisenheim (110m)

6-stündlich | Neueste Meldungen
Ortszeit Temperatur Wetter
Fr, 24.05. 14:00 22.1° C wolkig
Fr, 24.05. 8:00 13.5° C bewölkt
Fr, 24.05. 2:00 12.0° C bewölkt
Do, 23.05. 20:00 20.2° C leicht bewölkt
Do, 23.05. 14:00 19.9° C leicht bewölkt
Do, 23.05. 8:00 9.9° C wolkig
Do, 23.05. 2:00 9.1° C wolkig
Mi, 22.05. 20:00 17.4° C wolkenlos
Ortszeit Temperatur Wetter
Fr, 24.05. 18:30 22.9° C bedeckt
Fr, 24.05. 18:20 22.9° C bedeckt
Fr, 24.05. 18:10 22.9° C bedeckt
Fr, 24.05. 18:00 23.2° C bedeckt
Fr, 24.05. 17:50 23.2° C bedeckt
Fr, 24.05. 17:40 23.1° C wolkig
Fr, 24.05. 17:30 23.0° C wolkig
Fr, 24.05. 17:00 22.8° C bewölkt
Fr, 24.05. 16:30 23.1° C bedeckt
Fr, 24.05. 16:00 23.6° C leicht bewölkt
Fr, 24.05. 15:30 23.5° C bedeckt
Ortszeit Relative Feuchte Sichtweite
Fr, 24.05. 14:00 40% 17 km
Fr, 24.05. 8:00 73% 30 km
Fr, 24.05. 2:00 81% 30 km
Do, 23.05. 20:00 42% 40 km
Do, 23.05. 14:00 39% 30 km
Do, 23.05. 8:00 80% 22 km
Do, 23.05. 2:00 87% 30 km
Mi, 22.05. 20:00 49% 45 km
Ortszeit Relative Feuchte Sichtweite
Fr, 24.05. 18:30 37% 60 km
Fr, 24.05. 18:20 37% -
Fr, 24.05. 18:10 38% -
Fr, 24.05. 18:00 38% 60 km
Fr, 24.05. 17:50 38% -
Fr, 24.05. 17:40 39% -
Fr, 24.05. 17:30 38% 50 km
Fr, 24.05. 17:00 38% 40 km
Fr, 24.05. 16:30 37% 60 km
Fr, 24.05. 16:00 37% >70 km
Fr, 24.05. 15:30 38% 65 km
Ortszeit Niederschlagsmenge Niederschlagsart
Fr, 24.05. 14:00 0.0 l/m2 in 6 Std. -
Fr, 24.05. 8:00 0.0 l/m2 in 12 Std. -
Fr, 24.05. 2:00 0.0 l/m2 in 6 Std. -
Do, 23.05. 20:00 0.0 l/m2 in 12 Std. -
Do, 23.05. 14:00 0.0 l/m2 in 6 Std. -
Do, 23.05. 8:00 0.0 l/m2 in 12 Std. -
Do, 23.05. 2:00 0.0 l/m2 in 6 Std. -
Mi, 22.05. 20:00 0.1 l/m2 in 12 Std. -
Ortszeit Niederschlagsmenge Niederschlagsart
Fr, 24.05. 18:30 0.0 l/m2 in 1 Std. -
Fr, 24.05. 18:20 keine Meldung -
Fr, 24.05. 18:10 keine Meldung -
Fr, 24.05. 18:00 0.0 l/m2 in 1 Std. -
Fr, 24.05. 17:50 keine Meldung -
Fr, 24.05. 17:40 keine Meldung -
Fr, 24.05. 17:30 0.0 l/m2 in 1 Std. -
Fr, 24.05. 17:00 0.0 l/m2 in 1 Std. -
Fr, 24.05. 16:30 0.0 l/m2 in 1 Std. -
Fr, 24.05. 16:00 0.0 l/m2 in 1 Std. -
Fr, 24.05. 15:30 0.0 l/m2 in 1 Std. -
Ortszeit Stärke Spitze Richtung
km/h Bft. km/h Grad Sektor
Fr, 24.05. 14:00 7 2 18 160° S
Fr, 24.05. 8:00 2 1 7 160° S
Fr, 24.05. 2:00 4 1 14 300° NW
Do, 23.05. 20:00 7 2 19 150° SO
Do, 23.05. 14:00 7 2 18 170° S
Do, 23.05. 8:00 0 0 7 - -
Do, 23.05. 2:00 4 1 14 320° NW
Mi, 22.05. 20:00 4 1 32 320° NW
Ortszeit Stärke Spitze Richtung
km/h Bft. km/h Grad Sektor
Fr, 24.05. 18:30 9 2 13 230° SW
Fr, 24.05. 18:20 9 2 - 230° SW
Fr, 24.05. 18:10 9 2 - 220° SW
Fr, 24.05. 18:00 11 2 14 220° SW
Fr, 24.05. 17:50 11 2 - 220° SW
Fr, 24.05. 17:40 11 2 - 220° SW
Fr, 24.05. 17:30 9 2 15 210° SW
Fr, 24.05. 17:00 9 2 19 210° SW
Fr, 24.05. 16:30 11 2 18 200° S
Fr, 24.05. 16:00 7 2 18 220° SW
Fr, 24.05. 15:30 9 2 15 200° S
Ortszeit Untergrenze Bedeckung Gattung
total tief tief mittel hoch
Fr, 24.05. 14:00 2400 m 7/8 5/8 - - -
Fr, 24.05. 8:00 2100 m 8/8 5/8 - - -
Fr, 24.05. 2:00 2100 m 7/8 7/8 - - -
Do, 23.05. 20:00 9000 m 8/8 0/8 - - -
Do, 23.05. 14:00 10500 m 7/8 0/8 - - -
Do, 23.05. 8:00 9000 m 7/8 0/8 - - -
Do, 23.05. 2:00 9000 m 8/8 0/8 - - -
Mi, 22.05. 20:00 - 0/8 0/8 - - -
Ortszeit Bedeckungsgrad in Achtel und Wolkenuntergrenze
Fr, 24.05. 18:30 8(4500m)
Fr, 24.05. 18:20 8(4500m)
Fr, 24.05. 18:10 8(4500m)
Fr, 24.05. 18:00 8(4200m)
Fr, 24.05. 17:50 8(4200m)
Fr, 24.05. 17:40 1(2400m) 8(4200m)
Fr, 24.05. 17:30 1(2100m) 3(3000m) 8(4500m)
Fr, 24.05. 17:00 4(3000m) 7(4500m)
Fr, 24.05. 16:30 8(4800m) 8(4500m)
Fr, 24.05. 16:00 1(2700m) 8(4800m)
Fr, 24.05. 15:30 7(5100m) 8(6300m)
Ortszeit Luftdruck NN (hPa) Tendenz (hPa in 3 Std.)
Fr, 24.05. 14:00 1014 - 1,2
Fr, 24.05. 8:00 1016 + 0,2
Fr, 24.05. 2:00 1017 - 0,3
Do, 23.05. 20:00 1017 - 0,8
Do, 23.05. 14:00 1019 - 1,4
Do, 23.05. 8:00 1021 + 0,2
Do, 23.05. 2:00 1021 + 0,4
Mi, 22.05. 20:00 1020 - 0,2
Ortszeit Luftdruck NN (hPa) Tendenz (hPa in 3 Std.)
Fr, 24.05. 18:30 1013 - 1,1
Fr, 24.05. 18:20 1013 keine Meldung
Fr, 24.05. 18:10 1013 keine Meldung
Fr, 24.05. 18:00 1013 - 1,1
Fr, 24.05. 17:50 1013 keine Meldung
Fr, 24.05. 17:40 1013 keine Meldung
Fr, 24.05. 17:30 1013 - 0,9
Fr, 24.05. 17:00 1014 - 0,8
Fr, 24.05. 16:30 1014 - 0,8
Fr, 24.05. 16:00 1014 - 0,8
Fr, 24.05. 15:30 1014 - 1,0
Ortszeit Schneehöhe (cm)
Fr, 24.05. 14:00 -
Fr, 24.05. 8:00 -
Fr, 24.05. 2:00 -
Do, 23.05. 20:00 -
Do, 23.05. 14:00 -
Do, 23.05. 8:00 -
Do, 23.05. 2:00 -
Mi, 22.05. 20:00 -
Ortszeit Schneehöhe (cm)
Fr, 24.05. 18:30 -
Fr, 24.05. 18:20 -
Fr, 24.05. 18:10 -
Fr, 24.05. 18:00 -
Fr, 24.05. 17:50 -
Fr, 24.05. 17:40 -
Fr, 24.05. 17:30 -
Fr, 24.05. 17:00 -
Fr, 24.05. 16:30 -
Fr, 24.05. 16:00 -
Fr, 24.05. 15:30 -
Link zu dieser Seite / Seite empfehlen

Das Wetter in ...